Airfield :
LOGIN :

Register | Disclaimer

   EN    FR    IT 

 










Legend :    VFR   Marginal VFR   IFR   Intensive IFR   Very Intensive IFR
Visi :
Ceiling :
>= 8 km
>= 3000ft
5 to 8 km
1000 to 3000 ft
1500m to 5 km
500 to 1000 ft
800 to 1500m
200 to 500 ft
< 800m
< 200 ft
Symbols :   Thunderstorms  Fog  Heavy snow  Heavy precipitations  Wind > 20 kt
SIGMETs :     Misc.  Thunderstorms  Icing  Turbulence  Mountain Waves  Volcanic Ashes







- Airport Elevation : 28 ft
- IATA code : SOZ
- Download approach charts


LFKS - Solenzara

CURRENT METAR :
  • 201530Z AUTO 08004KT 050V120 CAVOK 23/14 Q1012

EXPIRED METARs :
  • 201500Z AUTO 06003KT 010V120 CAVOK 23/15 Q1012
  • 201430Z AUTO 07004KT 010V100 CAVOK 22/16 Q1012
  • 201400Z AUTO 09004KT 030V130 CAVOK 22/16 Q1013
  • 201330Z AUTO 07004KT 040V140 CAVOK 22/17 Q1013
  • 201300Z AUTO 08005KT 050V110 9999 ///CB 22/16 Q1013

Expired Forecast.
No reported NOTAMs for that airfield.
1 SIGMET reported for the Marseille FIR (LFMM) :
 
Embedded thunderstorms
LFMM SIGMET 3 VALID 201500/201600 LFPW
LFMM MARSEILLE FIR/UIR EMBD TS OBS WI N4400 E00530 - N4330 E00530 - N4345 E00430 - N4400 E00430 - N4400 E00530 TOP FL320 STNR NC=



MET'MAP, your aeronautical weather chart ! - Copyright ORBIFLY December 2007 - Disclaimer

ORBIFLY MET'MAP TEAM :

Programming & Development : Alexandra Zaïnal
Concept & Development : Baudouin d'Aumeries
Co-Development & Prog : Marc-Olivier Méhu
Technical & hardware support : Manuel Goepfert

Contact : metmap@orbifly.com




SOURCES & CREDITS :

   NOAA